Time;durP1;ratioP1;P1;durP2;ratioP2;P2;SDS_P1;SDS_P2;PMS_P1;PMS_P2;Temp;Humidity;BMP_temperature;BMP_pressure;BME280_temperature;BME280_humidity;BME280_pressure;Samples;Min_cycle;Max_cycle;Signal;HPM_P1;HPM_P2
2023/09/11 00:01:59;;;;;;;35.00;27.47;;;15.90;99.90;;;;;;5073369;28;20278;-85
2023/09/11 00:04:25;;;;;;;33.73;27.07;;;15.80;99.90;;;;;;5079549;28;20276;-85
2023/09/11 00:06:52;;;;;;;29.27;24.43;;;15.80;99.90;;;;;;5076632;28;20247;-84
2023/09/11 00:09:19;;;;;;;29.43;22.70;;;15.80;99.90;;;;;;5082832;28;20244;-85
2023/09/11 00:11:45;;;;;;;29.80;23.40;;;15.80;99.90;;;;;;5077880;28;20219;-84
2023/09/11 00:14:12;;;;;;;25.77;22.00;;;15.70;99.90;;;;;;5074997;28;20261;-84
2023/09/11 00:16:41;;;;;;;29.03;23.50;;;15.70;99.90;;;;;;5072339;28;20229;-85
2023/09/11 00:19:12;;;;;;;29.63;23.63;;;15.70;99.90;;;;;;5079434;28;20229;-85
2023/09/11 00:21:39;;;;;;;28.17;23.30;;;15.60;99.90;;;;;;5086386;28;20269;-85
2023/09/11 00:24:06;;;;;;;27.83;21.90;;;15.60;99.90;;;;;;5087220;28;20319;-85
2023/09/11 00:26:33;;;;;;;30.48;24.30;;;15.60;99.90;;;;;;5080315;28;20264;-85
2023/09/11 00:29:00;;;;;;;32.60;24.47;;;15.60;99.90;;;;;;5098869;28;20226;-86
2023/09/11 00:31:26;;;;;;;25.37;20.60;;;15.60;99.90;;;;;;5098686;28;20297;-85
2023/09/11 00:33:53;;;;;;;27.33;22.53;;;15.50;99.90;;;;;;5074679;28;20313;-85
2023/09/11 00:36:22;;;;;;;31.13;23.70;;;15.40;99.90;;;;;;5070525;28;20313;-86
2023/09/11 00:38:50;;;;;;;27.77;22.30;;;15.50;99.90;;;;;;5082037;28;20254;-85
2023/09/11 00:41:17;;;;;;;30.50;24.30;;;15.40;99.90;;;;;;5080240;28;20225;-85
2023/09/11 00:43:44;;;;;;;30.03;23.97;;;15.40;99.90;;;;;;5088567;28;20860;-86
2023/09/11 00:46:11;;;;;;;31.57;24.13;;;15.30;99.90;;;;;;5095364;28;20910;-85
2023/09/11 00:48:38;;;;;;;39.83;30.47;;;15.30;99.90;;;;;;5081247;28;20212;-84
2023/09/11 00:51:06;;;;;;;36.57;26.93;;;15.30;99.90;;;;;;5106949;28;20869;-85
2023/09/11 00:53:35;;;;;;;32.10;25.47;;;15.30;99.90;;;;;;5089021;28;20232;-85
2023/09/11 00:56:02;;;;;;;35.50;27.30;;;15.30;99.90;;;;;;5079514;28;20229;-85
2023/09/11 00:58:29;;;;;;;35.13;27.03;;;15.30;99.90;;;;;;5068888;28;20287;-84
2023/09/11 01:00:56;;;;;;;39.17;28.23;;;15.30;99.90;;;;;;5091162;28;20253;-84
2023/09/11 01:03:23;;;;;;;40.43;30.17;;;15.30;99.90;;;;;;5072977;28;20370;-86
2023/09/11 01:05:51;;;;;;;29.20;24.17;;;15.20;99.90;;;;;;5080171;28;20214;-85
2023/09/11 01:08:20;;;;;;;30.00;23.07;;;15.30;99.90;;;;;;5075351;28;20227;-85
2023/09/11 01:10:48;;;;;;;26.03;20.43;;;15.20;99.90;;;;;;5081701;28;20699;-85
2023/09/11 01:13:15;;;;;;;26.33;21.33;;;15.20;99.90;;;;;;5077490;28;20228;-85
2023/09/11 01:15:53;;;;;;;35.30;27.03;;;15.10;99.90;;;;;;5096012;28;20279;-85
2023/09/11 01:18:25;;;;;;;39.17;28.80;;;15.10;99.90;;;;;;5095114;28;20300;-84
2023/09/11 01:21:29;;;;;;;33.43;26.60;;;15.10;99.90;;;;;;5077108;28;20309;-85
2023/09/11 01:24:26;;;;;;;27.97;22.70;;;15.10;99.90;;;;;;5086064;28;20817;-86
2023/09/11 01:27:23;;;;;;;35.00;26.87;;;15.00;99.90;;;;;;5048422;28;20313;-86
2023/09/11 01:29:53;;;;;;;38.73;28.10;;;15.00;99.90;;;;;;5076737;28;20228;-85
2023/09/11 01:32:22;;;;;;;38.50;28.73;;;15.00;99.90;;;;;;5083098;28;20230;-86
2023/09/11 01:34:48;;;;;;;35.87;26.73;;;15.00;99.90;;;;;;5085499;28;20226;-86
2023/09/11 01:37:15;;;;;;;32.83;25.70;;;15.00;99.90;;;;;;5080998;28;20226;-86
2023/09/11 01:39:42;;;;;;;33.47;26.13;;;14.90;99.90;;;;;;5083870;28;20260;-86
2023/09/11 01:42:13;;;;;;;35.00;27.20;;;14.90;99.90;;;;;;5079795;28;21185;-86
2023/09/11 01:44:43;;;;;;;37.37;27.83;;;14.90;99.90;;;;;;5077441;28;20224;-87
2023/09/11 01:47:14;;;;;;;39.90;29.43;;;14.80;99.90;;;;;;5079160;28;20236;-85
2023/09/11 01:49:42;;;;;;;36.40;27.97;;;14.80;99.90;;;;;;5093740;28;20312;-85
2023/09/11 01:52:11;;;;;;;37.77;27.47;;;14.80;99.90;;;;;;5096226;28;20225;-84
2023/09/11 01:54:38;;;;;;;39.13;28.93;;;14.80;99.90;;;;;;5096481;28;20229;-85
2023/09/11 01:57:06;;;;;;;37.70;27.57;;;14.80;99.90;;;;;;5095733;28;20221;-84
2023/09/11 01:59:33;;;;;;;40.27;29.97;;;14.80;99.90;;;;;;5081607;28;20229;-84
2023/09/11 02:02:00;;;;;;;38.90;29.43;;;14.80;99.90;;;;;;5095880;28;20255;-84
2023/09/11 02:04:29;;;;;;;39.97;29.37;;;14.80;99.90;;;;;;5096245;28;20303;-84
2023/09/11 02:06:55;;;;;;;37.97;29.70;;;14.80;99.90;;;;;;5083650;28;20324;-86
2023/09/11 02:09:22;;;;;;;39.07;28.70;;;14.70;99.90;;;;;;5073966;28;20307;-85
2023/09/11 02:11:49;;;;;;;39.73;29.17;;;14.70;99.90;;;;;;5074511;28;20279;-84
2023/09/11 02:14:16;;;;;;;42.30;29.47;;;14.70;99.90;;;;;;5080917;28;20253;-85
2023/09/11 02:16:42;;;;;;;42.97;30.87;;;14.70;99.90;;;;;;5086696;28;20247;-85
2023/09/11 02:19:09;;;;;;;37.60;28.33;;;14.70;99.90;;;;;;5086066;28;20640;-84
2023/09/11 02:21:37;;;;;;;36.97;28.30;;;14.70;99.90;;;;;;5109202;28;20224;-84
2023/09/11 02:24:04;;;;;;;38.60;28.83;;;14.70;99.90;;;;;;5109664;28;20302;-84
2023/09/11 02:26:31;;;;;;;36.13;27.40;;;14.70;99.90;;;;;;5090960;28;20257;-84
2023/09/11 02:28:59;;;;;;;42.47;29.50;;;14.60;99.90;;;;;;5096003;28;20305;-84
2023/09/11 02:31:27;;;;;;;35.90;26.80;;;14.60;99.90;;;;;;5085849;28;20228;-84
2023/09/11 02:33:54;;;;;;;32.17;25.13;;;14.50;99.90;;;;;;5092603;28;20331;-85
2023/09/11 02:36:21;;;;;;;34.73;27.27;;;14.50;99.90;;;;;;5089118;28;20329;-84
2023/09/11 02:38:50;;;;;;;35.37;24.43;;;14.50;99.90;;;;;;5084756;28;20220;-84
2023/09/11 02:41:17;;;;;;;35.70;26.97;;;14.50;99.90;;;;;;5083959;28;20220;-84
2023/09/11 02:43:44;;;;;;;41.93;29.63;;;14.40;99.90;;;;;;5096540;28;20221;-84
2023/09/11 02:46:11;;;;;;;44.10;29.57;;;14.40;99.90;;;;;;5079510;28;20228;-85
2023/09/11 02:48:43;;;;;;;37.80;30.43;;;14.40;99.90;;;;;;5084418;28;20247;-85
2023/09/11 02:51:10;;;;;;;34.50;25.87;;;14.40;99.90;;;;;;5079538;28;20238;-85
2023/09/11 02:53:37;;;;;;;38.13;28.33;;;14.40;99.90;;;;;;5089059;28;20213;-86
2023/09/11 02:56:06;;;;;;;38.47;28.53;;;14.40;99.90;;;;;;5098086;28;20717;-86
2023/09/11 02:58:33;;;;;;;34.33;26.50;;;14.40;99.90;;;;;;5081362;28;20222;-84
2023/09/11 03:01:02;;;;;;;36.07;25.03;;;14.40;99.90;;;;;;5094929;28;20217;-84
2023/09/11 03:03:29;;;;;;;29.93;23.87;;;14.30;99.90;;;;;;5080598;28;20245;-84
2023/09/11 03:05:55;;;;;;;31.13;23.70;;;14.30;99.90;;;;;;5095445;28;20310;-84
2023/09/11 03:08:22;;;;;;;27.60;22.47;;;14.30;99.90;;;;;;5080094;28;20689;-83
2023/09/11 03:10:49;;;;;;;32.47;24.70;;;14.20;99.90;;;;;;5078904;28;20253;-83
2023/09/11 03:13:17;;;;;;;33.37;26.53;;;14.20;99.90;;;;;;5080490;28;20225;-83
2023/09/11 03:15:44;;;;;;;31.80;24.20;;;14.20;99.90;;;;;;5082749;28;20253;-83
2023/09/11 03:18:11;;;;;;;32.40;24.70;;;14.10;99.90;;;;;;5079776;28;20265;-83
2023/09/11 03:20:38;;;;;;;58.77;26.63;;;14.10;99.90;;;;;;5086523;28;20874;-83
2023/09/11 03:23:05;;;;;;;31.97;24.67;;;14.00;99.90;;;;;;5098078;28;20278;-84
2023/09/11 03:25:34;;;;;;;31.37;26.27;;;14.00;99.90;;;;;;5086528;28;20229;-84
2023/09/11 03:28:01;;;;;;;37.40;24.30;;;14.00;99.90;;;;;;5070998;28;20217;-84
2023/09/11 03:30:29;;;;;;;35.27;24.63;;;14.00;99.90;;;;;;5074438;28;20229;-84
2023/09/11 03:32:55;;;;;;;26.27;23.40;;;14.00;99.90;;;;;;5074549;28;20231;-84
2023/09/11 03:35:24;;;;;;;25.43;22.70;;;14.00;99.90;;;;;;5080141;28;20269;-84
2023/09/11 03:37:50;;;;;;;27.57;23.63;;;14.00;99.90;;;;;;5081691;28;20222;-83
2023/09/11 03:40:20;;;;;;;30.83;24.27;;;14.00;99.90;;;;;;5079111;28;20216;-83
2023/09/11 03:42:47;;;;;;;25.73;23.03;;;14.00;99.90;;;;;;5081372;28;20744;-84
2023/09/11 03:45:13;;;;;;;39.17;24.33;;;14.00;99.90;;;;;;5084695;28;20222;-83
2023/09/11 03:47:42;;;;;;;28.47;23.63;;;13.90;99.90;;;;;;5073816;28;20276;-83
2023/09/11 03:50:09;;;;;;;28.80;24.40;;;14.00;99.90;;;;;;5074566;28;20217;-83
2023/09/11 03:52:36;;;;;;;34.33;25.67;;;13.90;99.90;;;;;;5094333;28;20231;-83
2023/09/11 03:55:03;;;;;;;46.10;25.63;;;13.90;99.90;;;;;;5076444;28;20222;-84
2023/09/11 03:57:29;;;;;;;44.33;24.17;;;13.90;99.90;;;;;;5083469;28;20233;-83
2023/09/11 03:59:56;;;;;;;40.43;25.83;;;13.90;99.90;;;;;;5080645;28;20220;-83
2023/09/11 04:02:23;;;;;;;31.03;24.43;;;13.80;99.90;;;;;;5079253;28;20288;-83
2023/09/11 04:04:51;;;;;;;27.73;23.63;;;13.80;99.90;;;;;;5074165;28;20306;-84
2023/09/11 04:07:18;;;;;;;26.03;22.80;;;13.80;99.90;;;;;;5083037;28;20224;-83
2023/09/11 04:09:45;;;;;;;25.13;22.43;;;13.70;99.90;;;;;;5077037;28;20305;-83
2023/09/11 04:12:14;;;;;;;32.83;25.63;;;13.70;99.90;;;;;;5078704;28;20775;-83
2023/09/11 04:14:41;;;;;;;27.30;22.53;;;13.70;99.90;;;;;;5095475;28;20228;-83
2023/09/11 04:17:10;;;;;;;28.53;23.17;;;13.70;99.90;;;;;;5080106;28;20234;-83
2023/09/11 04:19:37;;;;;;;31.80;23.73;;;13.70;99.90;;;;;;5083623;28;20221;-84
2023/09/11 04:22:05;;;;;;;30.20;23.97;;;13.70;99.90;;;;;;5080911;28;20237;-85
2023/09/11 04:24:32;;;;;;;24.93;22.03;;;13.60;99.90;;;;;;5073298;28;20231;-85
2023/09/11 04:26:59;;;;;;;25.03;22.33;;;13.60;99.90;;;;;;5084328;28;20284;-83
2023/09/11 04:29:26;;;;;;;24.83;22.17;;;13.60;99.90;;;;;;5084418;28;20297;-83
2023/09/11 04:31:53;;;;;;;24.43;21.77;;;13.60;99.90;;;;;;5077993;28;20225;-85
2023/09/11 04:34:20;;;;;;;25.17;22.00;;;13.60;99.90;;;;;;5083174;28;20273;-83
2023/09/11 04:36:47;;;;;;;24.47;21.80;;;13.60;99.90;;;;;;5076679;28;20232;-83
2023/09/11 04:39:15;;;;;;;26.47;20.60;;;13.50;99.90;;;;;;5076612;28;20225;-83
2023/09/11 04:41:43;;;;;;;25.17;22.47;;;13.50;99.90;;;;;;5085783;28;20293;-86
2023/09/11 04:44:10;;;;;;;22.67;20.27;;;13.50;99.90;;;;;;5095381;28;20229;-86
2023/09/11 04:46:38;;;;;;;22.87;20.60;;;13.50;99.90;;;;;;5082627;28;20320;-84
2023/09/11 04:49:05;;;;;;;23.37;20.97;;;13.50;99.90;;;;;;5077153;28;20890;-85
2023/09/11 04:51:32;;;;;;;21.40;19.17;;;13.50;99.90;;;;;;5081933;28;20235;-85
2023/09/11 04:53:59;;;;;;;20.70;18.60;;;13.50;99.90;;;;;;5081408;28;20367;-85
2023/09/11 04:56:27;;;;;;;21.43;19.33;;;13.50;99.90;;;;;;5095144;28;20276;-85
2023/09/11 04:58:54;;;;;;;19.80;17.90;;;13.50;99.90;;;;;;5075259;28;20301;-85
2023/09/11 05:01:20;;;;;;;20.03;17.60;;;13.50;99.90;;;;;;5074774;28;20892;-86
2023/09/11 05:03:49;;;;;;;19.43;17.53;;;13.40;99.90;;;;;;5081517;28;20217;-82
2023/09/11 05:06:16;;;;;;;20.70;18.70;;;13.40;99.90;;;;;;5089857;28;20601;-86
2023/09/11 05:08:43;;;;;;;18.50;16.77;;;13.40;99.90;;;;;;5074697;28;20224;-85
2023/09/11 05:11:10;;;;;;;18.47;16.60;;;13.40;99.90;;;;;;5077145;28;20684;-82
2023/09/11 05:13:38;;;;;;;20.23;18.13;;;13.40;99.90;;;;;;5081861;28;20225;-81
2023/09/11 05:16:05;;;;;;;18.43;16.57;;;13.40;99.90;;;;;;5073828;28;20223;-81
2023/09/11 05:18:32;;;;;;;20.23;18.17;;;13.40;99.90;;;;;;5075487;28;20526;-81
2023/09/11 05:20:59;;;;;;;18.60;16.70;;;13.40;99.90;;;;;;5078476;28;20252;-81
2023/09/11 05:23:26;;;;;;;19.77;17.77;;;13.40;99.90;;;;;;5093747;28;20226;-82
2023/09/11 05:25:52;;;;;;;18.17;16.43;;;13.40;99.90;;;;;;5073817;28;20781;-81
2023/09/11 05:28:19;;;;;;;19.73;17.83;;;13.40;99.90;;;;;;5089196;28;20220;-81
2023/09/11 05:30:49;;;;;;;19.57;17.57;;;13.40;99.90;;;;;;5077690;28;20311;-81
2023/09/11 05:33:16;;;;;;;19.80;17.90;;;13.40;99.90;;;;;;5095871;28;20281;-82
2023/09/11 05:35:45;;;;;;;18.17;16.37;;;13.40;99.90;;;;;;5076174;28;20234;-81
2023/09/11 05:38:12;;;;;;;18.73;16.93;;;13.50;99.90;;;;;;5076554;28;20811;-81
2023/09/11 05:40:39;;;;;;;18.37;16.60;;;13.50;99.90;;;;;;5081312;28;20220;-82
2023/09/11 05:43:05;;;;;;;18.27;16.50;;;13.50;99.90;;;;;;5090175;28;20226;-81
2023/09/11 05:45:32;;;;;;;18.97;17.03;;;13.60;99.90;;;;;;5097840;28;20233;-81
2023/09/11 05:48:01;;;;;;;17.60;15.90;;;13.60;99.90;;;;;;5073686;28;20729;-81
2023/09/11 05:50:28;;;;;;;18.90;17.10;;;13.70;99.90;;;;;;5077435;28;20233;-81
2023/09/11 05:52:54;;;;;;;19.53;17.53;;;13.70;99.90;;;;;;5071116;28;20233;-81
2023/09/11 05:55:21;;;;;;;18.50;16.70;;;13.80;99.90;;;;;;5100683;28;20598;-81
2023/09/11 05:57:48;;;;;;;18.50;16.70;;;13.80;99.90;;;;;;5094700;28;20214;-81
2023/09/11 06:00:15;;;;;;;19.17;17.23;;;13.90;99.90;;;;;;5095651;28;20221;-81
2023/09/11 06:02:45;;;;;;;19.60;17.60;;;13.90;99.90;;;;;;5082020;28;20249;-83
2023/09/11 06:05:13;;;;;;;20.93;18.83;;;14.00;99.90;;;;;;5081851;27;20260;-83
2023/09/11 06:07:39;;;;;;;19.70;17.70;;;14.10;99.90;;;;;;5081226;28;20233;-83
2023/09/11 06:10:07;;;;;;;22.17;18.93;;;14.20;99.90;;;;;;5079757;28;20222;-84
2023/09/11 06:12:34;;;;;;;18.67;16.83;;;14.30;99.90;;;;;;5098257;28;20218;-84
2023/09/11 06:15:02;;;;;;;21.17;18.97;;;14.40;99.90;;;;;;5079182;28;20230;-82
2023/09/11 06:17:29;;;;;;;20.43;18.30;;;14.40;99.90;;;;;;5082712;28;20468;-82
2023/09/11 06:19:56;;;;;;;19.80;17.93;;;14.50;99.90;;;;;;5082836;28;20944;-83
2023/09/11 06:22:24;;;;;;;22.17;19.87;;;14.60;99.90;;;;;;5085322;28;20218;-83
2023/09/11 06:24:50;;;;;;;20.03;17.97;;;14.60;99.90;;;;;;5077004;28;20325;-83
2023/09/11 06:27:17;;;;;;;19.43;17.43;;;14.70;99.90;;;;;;5097964;28;20267;-83
2023/09/11 06:29:44;;;;;;;21.77;19.57;;;14.80;99.90;;;;;;5081771;28;20339;-84
2023/09/11 06:32:14;;;;;;;21.23;18.87;;;14.90;99.90;;;;;;5081525;28;20226;-84
2023/09/11 06:34:41;;;;;;;22.20;19.33;;;15.00;99.90;;;;;;5099819;28;20242;-83
2023/09/11 06:37:09;;;;;;;21.47;19.23;;;15.10;99.90;;;;;;5099674;28;20308;-83
2023/09/11 06:39:37;;;;;;;22.50;20.03;;;15.20;99.90;;;;;;5084598;28;20221;-84
2023/09/11 06:42:04;;;;;;;20.67;18.47;;;15.30;99.90;;;;;;5083986;28;20228;-84
2023/09/11 06:44:31;;;;;;;21.67;19.37;;;15.30;99.90;;;;;;5087951;28;20589;-84
2023/09/11 06:46:58;;;;;;;21.07;18.97;;;15.40;99.90;;;;;;5091621;28;20226;-82
2023/09/11 06:49:25;;;;;;;20.05;18.05;;;15.50;99.90;;;;;;5083252;28;20227;-82
2023/09/11 06:51:52;;;;;;;20.25;17.30;;;15.60;99.90;;;;;;5084024;28;20318;-82
2023/09/11 06:54:18;;;;;;;19.92;17.83;;;15.70;99.90;;;;;;5092448;28;20723;-84
2023/09/11 06:56:46;;;;;;;21.27;18.90;;;15.80;99.90;;;;;;5080924;28;20869;-82
2023/09/11 06:59:13;;;;;;;20.90;18.70;;;15.90;99.90;;;;;;5095792;28;20321;-81
2023/09/11 07:01:40;;;;;;;19.38;17.38;;;15.90;99.90;;;;;;5085183;28;20229;-83
2023/09/11 07:04:10;;;;;;;19.27;16.25;;;16.00;99.90;;;;;;5075823;28;20225;-83
2023/09/11 07:06:37;;;;;;;20.98;18.30;;;16.10;99.90;;;;;;5076570;28;20218;-82
2023/09/11 07:09:04;;;;;;;18.57;16.60;;;16.20;99.90;;;;;;5091030;28;20225;-84
2023/09/11 07:11:31;;;;;;;19.27;17.20;;;16.20;99.90;;;;;;5097760;28;20311;-84
2023/09/11 07:13:59;;;;;;;19.20;17.25;;;16.30;99.90;;;;;;5097888;28;20219;-82
2023/09/11 07:16:26;;;;;;;18.30;16.50;;;16.40;99.90;;;;;;5093114;28;20314;-83
2023/09/11 07:18:53;;;;;;;17.63;15.83;;;16.40;99.90;;;;;;5076328;28;20214;-84
2023/09/11 07:21:19;;;;;;;16.55;14.88;;;16.50;99.90;;;;;;5078348;28;20237;-85
2023/09/11 07:23:46;;;;;;;16.90;15.10;;;16.60;99.90;;;;;;5082505;28;20225;-85
2023/09/11 07:26:13;;;;;;;18.92;15.93;;;16.70;99.90;;;;;;5084461;28;20312;-85
2023/09/11 07:28:56;;;;;;;17.70;15.90;;;16.80;99.90;;;;;;5099076;28;20329;-84
2023/09/11 07:31:25;;;;;;;18.60;15.60;;;16.80;99.90;;;;;;5087407;28;20221;-84
2023/09/11 07:33:52;;;;;;;19.58;17.30;;;17.00;99.90;;;;;;5093058;28;20315;-85
2023/09/11 07:36:19;;;;;;;18.25;16.35;;;17.10;99.90;;;;;;5082143;28;20257;-86
2023/09/11 07:38:46;;;;;;;16.63;14.93;;;17.20;99.90;;;;;;5074820;28;20222;-83
2023/09/11 07:41:14;;;;;;;17.40;15.30;;;17.30;99.90;;;;;;5082919;28;20252;-83
2023/09/11 07:43:41;;;;;;;18.60;15.27;;;17.50;99.90;;;;;;5078452;28;20941;-84
2023/09/11 07:46:07;;;;;;;17.85;16.13;;;17.60;99.90;;;;;;5078418;28;20283;-83
2023/09/11 07:48:35;;;;;;;17.98;15.68;;;17.70;99.90;;;;;;5079680;28;20222;-84
2023/09/11 07:51:02;;;;;;;17.08;15.27;;;17.80;99.90;;;;;;5095532;28;20592;-84
2023/09/11 07:53:30;;;;;;;16.20;14.45;;;18.00;99.90;;;;;;5084472;28;20219;-84
2023/09/11 07:55:56;;;;;;;16.60;14.80;;;18.10;99.90;;;;;;5079605;28;20576;-84
2023/09/11 07:58:23;;;;;;;15.60;13.93;;;18.40;99.90;;;;;;5082450;28;22648;-84
2023/09/11 08:00:50;;;;;;;15.98;13.70;;;18.80;99.90;;;;;;5080571;28;20224;-83
2023/09/11 08:03:17;;;;;;;15.63;13.02;;;19.20;99.90;;;;;;5081460;28;20222;-84
2023/09/11 08:05:45;;;;;;;13.85;12.23;;;19.60;99.90;;;;;;5085228;28;20229;-84
2023/09/11 08:08:11;;;;;;;13.00;11.60;;;20.10;99.90;;;;;;5096403;28;20225;-85
2023/09/11 08:10:38;;;;;;;14.70;11.93;;;20.50;99.90;;;;;;5087436;28;20304;-84
2023/09/11 08:13:05;;;;;;;13.88;12.35;;;20.80;99.90;;;;;;5083607;28;20224;-80
2023/09/11 08:15:32;;;;;;;14.00;10.77;;;21.20;99.90;;;;;;5079717;28;20222;-80
2023/09/11 08:17:58;;;;;;;11.90;10.48;;;21.70;99.90;;;;;;5094308;28;20223;-79
2023/09/11 08:20:25;;;;;;;12.45;10.60;;;22.20;99.90;;;;;;5080784;28;20250;-80
2023/09/11 08:22:53;;;;;;;11.10;10.07;;;22.60;99.90;;;;;;5071690;28;20218;-80
2023/09/11 08:25:19;;;;;;;11.35;9.73;;;23.20;99.90;;;;;;5075751;28;20926;-81
2023/09/11 08:27:47;;;;;;;10.85;9.40;;;23.70;99.90;;;;;;5092302;28;20249;-79
2023/09/11 08:30:13;;;;;;;10.75;9.35;;;24.30;99.90;;;;;;5082161;28;20647;-80
2023/09/11 08:32:40;;;;;;;10.93;8.75;;;24.80;99.90;;;;;;5075669;28;20252;-80
2023/09/11 08:35:07;;;;;;;10.35;9.35;;;25.20;99.90;;;;;;5073748;28;20748;-79
2023/09/11 08:37:34;;;;;;;9.93;8.23;;;25.60;99.90;;;;;;5092343;28;20309;-79
2023/09/11 08:40:03;;;;;;;9.52;8.40;;;26.00;99.90;;;;;;5095699;28;20222;-79
2023/09/11 08:42:30;;;;;;;10.27;9.27;;;26.30;99.90;;;;;;5078441;28;20226;-79
2023/09/11 08:44:56;;;;;;;9.57;8.52;;;26.60;99.90;;;;;;5083363;28;20325;-79
2023/09/11 08:47:29;;;;;;;9.30;8.30;;;26.90;99.90;;;;;;5080272;28;20278;-79
2023/09/11 08:50:00;;;;;;;9.95;8.93;;;27.20;99.90;;;;;;5083413;28;20229;-80
2023/09/11 08:52:28;;;;;;;9.88;8.25;;;27.50;99.80;;;;;;5077535;28;20293;-78
2023/09/11 08:54:58;;;;;;;10.00;8.98;;;27.90;99.90;;;;;;5084649;28;20222;-79
2023/09/11 08:57:29;;;;;;;8.52;7.72;;;28.20;99.80;;;;;;5097151;28;20226;-79
2023/09/11 09:00:03;;;;;;;8.77;7.88;;;28.50;99.50;;;;;;5076018;28;20221;-80
2023/09/11 09:02:31;;;;;;;10.57;7.93;;;28.70;97.30;;;;;;5080469;28;20237;-79
2023/09/11 09:04:58;;;;;;;11.05;7.70;;;29.10;98.50;;;;;;5081685;28;20272;-79
2023/09/11 09:07:26;;;;;;;8.52;7.72;;;29.30;98.50;;;;;;5096762;28;20226;-79
2023/09/11 09:09:54;;;;;;;8.80;7.90;;;29.60;98.20;;;;;;5079000;28;20244;-80
2023/09/11 09:12:21;;;;;;;8.32;7.60;;;29.90;97.80;;;;;;5081221;28;20225;-79
2023/09/11 09:14:49;;;;;;;10.57;7.70;;;30.30;97.30;;;;;;5100652;28;20449;-79
2023/09/11 09:17:16;;;;;;;10.82;8.20;;;30.70;96.60;;;;;;5092937;28;20303;-79
2023/09/11 09:19:42;;;;;;;8.25;6.93;;;31.10;96.20;;;;;;5076216;28;20305;-79
2023/09/11 09:22:13;;;;;;;7.90;7.10;;;31.50;95.50;;;;;;5081773;28;20206;-79
2023/09/11 09:24:48;;;;;;;9.48;7.25;;;31.80;94.10;;;;;;5076940;28;20214;-80
2023/09/11 09:27:15;;;;;;;7.63;6.13;;;32.10;92.50;;;;;;5098232;28;20218;-80
2023/09/11 09:29:42;;;;;;;8.85;7.97;;;32.30;93.60;;;;;;5077965;28;20219;-79
2023/09/11 09:32:10;;;;;;;8.35;6.80;;;32.60;93.30;;;;;;5096705;28;20334;-79
2023/09/11 09:34:42;;;;;;;9.23;7.30;;;32.80;92.60;;;;;;5080327;28;20215;-80
2023/09/11 09:37:16;;;;;;;7.60;6.90;;;33.10;91.60;;;;;;5084667;28;20218;-80
2023/09/11 09:39:43;;;;;;;8.10;7.07;;;33.30;90.60;;;;;;5082721;28;20211;-80
2023/09/11 09:42:11;;;;;;;7.30;6.00;;;33.50;90.50;;;;;;5096578;28;20211;-80
2023/09/11 09:44:42;;;;;;;7.30;6.57;;;33.80;89.90;;;;;;5099518;28;20305;-80
2023/09/11 09:47:12;;;;;;;7.82;6.60;;;33.90;87.10;;;;;;5102799;28;20272;-80
2023/09/11 09:49:45;;;;;;;7.70;6.03;;;33.90;84.30;;;;;;5102322;28;20283;-80
2023/09/11 09:52:13;;;;;;;7.40;5.68;;;33.90;81.80;;;;;;5099571;28;20290;-80
2023/09/11 09:54:47;;;;;;;5.63;5.03;;;34.00;84.20;;;;;;5097705;28;20248;-80
2023/09/11 09:57:16;;;;;;;8.65;5.78;;;33.90;80.70;;;;;;5088146;28;20297;-80
2023/09/11 09:59:43;;;;;;;6.15;5.47;;;33.80;80.00;;;;;;5095278;28;20346;-79
2023/09/11 10:02:12;;;;;;;6.55;5.90;;;33.70;79.90;;;;;;5063896;28;20247;-80
2023/09/11 10:04:39;;;;;;;5.55;4.53;;;33.70;80.00;;;;;;5097890;28;20248;-80
2023/09/11 10:07:07;;;;;;;7.15;5.03;;;33.60;80.40;;;;;;5083720;28;20563;-80
2023/09/11 10:09:34;;;;;;;5.78;5.25;;;33.50;81.20;;;;;;5087214;28;20221;-80
2023/09/11 10:12:09;;;;;;;9.40;6.10;;;33.50;81.20;;;;;;5096608;28;20218;-80
2023/09/11 10:14:36;;;;;;;8.05;5.97;;;33.50;77.90;;;;;;5098610;28;20301;-80
2023/09/11 10:17:04;;;;;;;6.70;5.40;;;33.50;79.40;;;;;;5097437;28;20228;-79
2023/09/11 10:19:33;;;;;;;7.18;5.20;;;33.40;78.60;;;;;;5080435;28;20811;-80
2023/09/11 10:22:00;;;;;;;6.35;5.55;;;33.50;77.30;;;;;;5082937;28;20232;-80
2023/09/11 10:24:27;;;;;;;10.80;5.82;;;33.40;78.80;;;;;;5094750;28;20309;-80
2023/09/11 10:26:57;;;;;;;7.35;5.72;;;33.50;78.90;;;;;;5085073;28;20309;-80
2023/09/11 10:29:36;;;;;;;8.10;5.60;;;33.60;76.60;;;;;;5097297;28;20218;-79
2023/09/11 10:32:07;;;;;;;7.95;5.63;;;33.70;75.30;;;;;;5079963;28;20213;-80
2023/09/11 10:34:38;;;;;;;9.35;5.97;;;33.70;74.40;;;;;;5086232;28;20226;-80
2023/09/11 10:37:06;;;;;;;7.32;5.57;;;33.70;73.60;;;;;;5097514;28;20227;-80
2023/09/11 10:39:34;;;;;;;6.63;5.80;;;33.50;72.80;;;;;;5085053;28;20222;-80
2023/09/11 10:42:01;;;;;;;12.10;6.18;;;33.40;73.20;;;;;;5083970;28;20221;-80
2023/09/11 10:44:29;;;;;;;10.10;7.03;;;33.40;75.80;;;;;;5094823;28;20876;-80
2023/09/11 10:47:02;;;;;;;12.38;6.20;;;33.40;74.70;;;;;;5079049;28;20304;-80
2023/09/11 10:49:37;;;;;;;11.60;5.95;;;33.40;75.80;;;;;;5084419;28;20226;-80
2023/09/11 10:52:06;;;;;;;7.55;5.72;;;33.60;75.00;;;;;;5096985;28;20221;-81
2023/09/11 10:54:34;;;;;;;9.65;5.50;;;33.80;75.10;;;;;;5086895;28;20755;-80
2023/09/11 10:57:01;;;;;;;9.88;6.30;;;33.90;72.90;;;;;;5082579;28;20875;-80
2023/09/11 10:59:29;;;;;;;8.15;5.68;;;34.10;73.50;;;;;;5097859;28;20221;-80
2023/09/11 11:01:55;;;;;;;9.88;6.13;;;34.20;71.30;;;;;;5096642;28;20212;-79
2023/09/11 11:04:24;;;;;;;13.05;5.90;;;34.20;70.60;;;;;;5101584;28;20222;-80
2023/09/11 11:06:54;;;;;;;12.10;6.25;;;34.10;70.00;;;;;;5086166;28;20303;-81
2023/09/11 11:09:25;;;;;;;10.75;5.75;;;34.00;68.90;;;;;;5086886;28;20221;-80
2023/09/11 11:11:52;;;;;;;15.63;6.82;;;34.00;70.60;;;;;;5079872;28;20211;-80
2023/09/11 11:14:21;;;;;;;12.80;5.80;;;33.90;70.70;;;;;;5087631;28;20221;-81
2023/09/11 11:16:59;;;;;;;9.13;5.60;;;33.90;71.50;;;;;;5076565;28;20215;-81
2023/09/11 11:19:27;;;;;;;10.00;5.75;;;33.90;70.20;;;;;;5097716;28;20229;-82
2023/09/11 11:21:55;;;;;;;12.77;6.40;;;33.90;70.90;;;;;;5080330;28;20800;-81
2023/09/11 11:24:24;;;;;;;14.70;6.13;;;34.00;70.50;;;;;;5082069;28;20226;-80
2023/09/11 11:26:54;;;;;;;12.98;6.07;;;34.00;70.80;;;;;;5099950;28;20222;-82
2023/09/11 11:29:21;;;;;;;8.02;5.93;;;34.00;71.10;;;;;;5096386;28;20996;-82
2023/09/11 11:31:53;;;;;;;10.82;6.35;;;34.10;71.80;;;;;;5097866;28;20238;-81
2023/09/11 11:34:22;;;;;;;8.23;5.72;;;34.20;68.70;;;;;;5091367;28;20222;-81
2023/09/11 11:36:50;;;;;;;13.10;6.63;;;34.10;70.00;;;;;;5077844;28;20296;-81
2023/09/11 11:39:18;;;;;;;9.25;5.72;;;34.10;70.60;;;;;;5074126;28;20227;-81
2023/09/11 11:41:45;;;;;;;7.43;5.55;;;34.20;70.40;;;;;;5083198;28;20215;-82
2023/09/11 11:44:11;;;;;;;11.60;6.07;;;34.20;69.90;;;;;;5092676;28;20818;-80
2023/09/11 11:46:40;;;;;;;10.48;6.43;;;34.20;70.70;;;;;;5085978;28;20248;-82
2023/09/11 11:49:07;;;;;;;8.43;6.03;;;34.20;70.50;;;;;;5081907;28;20210;-80
2023/09/11 11:51:33;;;;;;;12.40;6.32;;;34.20;69.40;;;;;;5078490;28;20234;-81
2023/09/11 11:54:00;;;;;;;11.23;6.18;;;34.10;69.70;;;;;;5080693;28;20236;-82
2023/09/11 11:56:28;;;;;;;10.63;6.30;;;34.00;68.10;;;;;;5093799;28;20226;-81
2023/09/11 11:58:56;;;;;;;13.57;6.07;;;34.00;69.10;;;;;;5084477;28;20525;-80
2023/09/11 12:01:23;;;;;;;14.95;6.50;;;33.90;69.80;;;;;;5091760;28;21110;-82
2023/09/11 12:03:51;;;;;;;12.13;5.82;;;33.80;68.40;;;;;;5080223;28;20318;-82
2023/09/11 12:06:19;;;;;;;12.65;6.20;;;33.70;66.60;;;;;;5083509;28;20226;-81
2023/09/11 12:08:47;;;;;;;8.95;5.47;;;33.40;67.40;;;;;;5082072;28;20585;-82
2023/09/11 12:11:14;;;;;;;10.88;5.82;;;33.30;67.90;;;;;;5079584;28;20222;-82
2023/09/11 12:13:42;;;;;;;8.50;5.78;;;33.00;68.90;;;;;;5090935;28;20705;-82
2023/09/11 12:16:10;;;;;;;11.52;6.40;;;33.00;69.60;;;;;;5079785;28;20222;-81
2023/09/11 12:18:41;;;;;;;12.63;6.55;;;32.80;70.50;;;;;;5074837;28;20298;-82
2023/09/11 12:21:08;;;;;;;24.15;8.85;;;32.70;71.30;;;;;;5097293;28;20254;-81
2023/09/11 12:23:35;;;;;;;13.85;7.55;;;32.70;71.60;;;;;;5081819;28;20837;-81
2023/09/11 12:26:03;;;;;;;11.15;6.72;;;32.50;71.30;;;;;;5093066;28;20380;-82
2023/09/11 12:28:30;;;;;;;15.02;7.00;;;32.50;72.30;;;;;;5080194;28;20880;-80
2023/09/11 12:30:58;;;;;;;8.75;7.00;;;32.40;72.80;;;;;;5075618;28;20232;-81
2023/09/11 12:33:27;;;;;;;10.88;6.57;;;32.40;72.80;;;;;;5083933;28;20233;-82
2023/09/11 12:35:54;;;;;;;9.05;6.95;;;32.40;74.00;;;;;;5076965;28;20218;-80
2023/09/11 12:38:22;;;;;;;9.38;6.57;;;32.40;73.80;;;;;;5081372;28;20618;-82